Danville, Kansas
Current Conditions -  °F | °C
As of 9:53 PM on Tuesday 25 Nov 2014 (Local Time) from KICT Reporting Station
Broken Clouds Broken Clouds  
Wind Chill: 36°   Ceiling: 20000
Heat Index: 42°   Visibility: 10mi
Dew Point: 27°   Wind: 12mph
Humidity: 55%   Direction: 170°S
Pressure: 29.98"   Gusts: NA
Location:  37.29°N, 97.89°W
Report Text: KICT 260353Z 17010KT 10SM SCT120 BKN200 06/M03 A2998 RMK AO2 SLP158 T00561028
Loading
Personal Weather Stations






























Interactive Weather Map New forecast layout! Learn more

10-Day Weather Forecast

Advertisements
Track Severe Weather on mobile